CFG1255 EDDF-EDDL
Flight info
| Callsign | CFG1255 |
|---|---|
| Flight time | 0h 28m |
| Altitude | 20000 |
| Route | MARUN3W MARUN Y152 ARPEG Z850 ADEMI T854 DOMUX DOMUX1A |
| Aircraft | A321/M-SDE3FGHIRWY/LB1 |
Departure
| Time | 2026-05-04 21:18 |
|---|---|
| Airport | Frankfurt Main Airport (EDDF) |
Arrival
| Time | 2026-05-04 21:47 |
|---|---|
| Airport | Düsseldorf Airport (EDDL) |
| Time | Latitude | Longitude | Altitude | Speed | Heading |
|---|---|---|---|---|---|
| 2026-05-04 21:10 | 50.04370 | 8.57011 | 360 ft | 0 kts | 160° |
| 2026-05-04 21:16 | 50.04344 | 8.57025 | 363 ft | 8 kts | 159° |
| 2026-05-04 21:17 | 50.04299 | 8.56977 | 362 ft | 12 kts | 253° |
| 2026-05-04 21:17 | 50.04246 | 8.56815 | 365 ft | 21 kts | 219° |
| 2026-05-04 21:17 | 50.04082 | 8.56696 | 362 ft | 31 kts | 216° |
| 2026-05-04 21:17 | 50.03937 | 8.56294 | 359 ft | 70 kts | 250° |
| 2026-05-04 21:18 | 50.03696 | 8.55277 | 346 ft | 127 kts | 250° |
| 2026-05-04 21:18 | 50.03335 | 8.53762 | 348 ft | 169 kts | 249° |
| 2026-05-04 21:18 | 50.02933 | 8.52064 | 934 ft | 165 kts | 250° |
| 2026-05-04 21:18 | 50.02458 | 8.50358 | 1286 ft | 182 kts | 238° |
| 2026-05-04 21:19 | 50.01537 | 8.48860 | 1503 ft | 202 kts | 214° |
| 2026-05-04 21:19 | 50.00223 | 8.48025 | 1906 ft | 208 kts | 191° |
| 2026-05-04 21:19 | 49.98808 | 8.47704 | 2382 ft | 208 kts | 188° |
| 2026-05-04 21:19 | 49.97372 | 8.47385 | 2867 ft | 209 kts | 188° |
| 2026-05-04 21:20 | 49.95941 | 8.47015 | 3319 ft | 209 kts | 195° |
| 2026-05-04 21:20 | 49.94486 | 8.46361 | 3462 ft | 229 kts | 197° |
| 2026-05-04 21:20 | 49.92908 | 8.45610 | 3927 ft | 241 kts | 201° |
| 2026-05-04 21:20 | 49.91526 | 8.44169 | 4731 ft | 242 kts | 229° |
| 2026-05-04 21:21 | 49.90730 | 8.41877 | 5543 ft | 245 kts | 255° |
| 2026-05-04 21:21 | 49.90713 | 8.39266 | 6333 ft | 251 kts | 282° |
| 2026-05-04 21:21 | 49.91536 | 8.36851 | 7061 ft | 260 kts | 311° |
| 2026-05-04 21:21 | 49.93056 | 8.35287 | 7742 ft | 269 kts | 335° |
| 2026-05-04 21:22 | 49.94857 | 8.34122 | 8147 ft | 288 kts | 335° |
| 2026-05-04 21:22 | 49.96729 | 8.32915 | 8860 ft | 294 kts | 335° |
| 2026-05-04 21:22 | 49.98633 | 8.31688 | 9671 ft | 298 kts | 335° |
| 2026-05-04 21:22 | 50.00573 | 8.30441 | 10290 ft | 309 kts | 335° |
| 2026-05-04 21:23 | 50.02708 | 8.29411 | 10464 ft | 334 kts | 346° |
| 2026-05-04 21:23 | 50.05098 | 8.28999 | 10600 ft | 358 kts | 358° |
| 2026-05-04 21:23 | 50.07614 | 8.29390 | 11028 ft | 369 kts | 11° |
| 2026-05-04 21:23 | 50.10068 | 8.30530 | 11627 ft | 374 kts | 18° |
| 2026-05-04 21:24 | 50.12545 | 8.31834 | 12278 ft | 378 kts | 18° |
| 2026-05-04 21:24 | 50.15050 | 8.33140 | 12956 ft | 382 kts | 18° |
| 2026-05-04 21:24 | 50.17588 | 8.34459 | 13678 ft | 386 kts | 18° |
| 2026-05-04 21:24 | 50.20148 | 8.35791 | 14253 ft | 390 kts | 18° |
| 2026-05-04 21:25 | 50.22737 | 8.37142 | 14820 ft | 394 kts | 18° |
| 2026-05-04 21:25 | 50.25341 | 8.38512 | 15387 ft | 397 kts | 18° |
| 2026-05-04 21:25 | 50.27970 | 8.39901 | 15950 ft | 401 kts | 18° |
| 2026-05-04 21:25 | 50.30624 | 8.41305 | 16507 ft | 404 kts | 18° |
| 2026-05-04 21:26 | 50.33290 | 8.42741 | 17054 ft | 407 kts | 18° |
| 2026-05-04 21:26 | 50.35943 | 8.44190 | 17593 ft | 411 kts | 18° |
| 2026-05-04 21:26 | 50.38651 | 8.45677 | 18137 ft | 414 kts | 18° |
| 2026-05-04 21:26 | 50.41380 | 8.47181 | 18628 ft | 418 kts | 18° |
| 2026-05-04 21:27 | 50.44132 | 8.48702 | 19079 ft | 421 kts | 18° |
| 2026-05-04 21:27 | 50.46905 | 8.50234 | 19553 ft | 424 kts | 18° |
| 2026-05-04 21:27 | 50.49703 | 8.51721 | 19906 ft | 426 kts | 17° |
| 2026-05-04 21:27 | 50.52537 | 8.53115 | 19993 ft | 430 kts | 15° |
| 2026-05-04 21:28 | 50.55414 | 8.54459 | 20012 ft | 433 kts | 15° |
| 2026-05-04 21:28 | 50.58311 | 8.55787 | 20010 ft | 433 kts | 15° |
| 2026-05-04 21:28 | 50.61202 | 8.57115 | 20015 ft | 433 kts | 15° |
| 2026-05-04 21:28 | 50.64055 | 8.58444 | 20004 ft | 433 kts | 15° |
| 2026-05-04 21:29 | 50.66952 | 8.59742 | 20009 ft | 432 kts | 10° |
| 2026-05-04 21:29 | 50.69926 | 8.60108 | 20008 ft | 428 kts | 354° |
| 2026-05-04 21:29 | 50.72821 | 8.59193 | 20015 ft | 423 kts | 337° |
| 2026-05-04 21:29 | 50.75411 | 8.57075 | 20001 ft | 417 kts | 321° |
| 2026-05-04 21:30 | 50.77505 | 8.53971 | 19999 ft | 411 kts | 305° |
| 2026-05-04 21:30 | 50.79169 | 8.50331 | 19997 ft | 409 kts | 302° |
| 2026-05-04 21:30 | 50.80810 | 8.46653 | 19999 ft | 409 kts | 302° |
| 2026-05-04 21:30 | 50.82450 | 8.42978 | 20000 ft | 410 kts | 302° |
| 2026-05-04 21:31 | 50.85661 | 8.35800 | 19555 ft | 388 kts | 302° |
| 2026-05-04 21:31 | 50.87191 | 8.32388 | 19313 ft | 383 kts | 302° |
| 2026-05-04 21:31 | 50.88724 | 8.28951 | 19078 ft | 381 kts | 302° |
| 2026-05-04 21:32 | 50.90247 | 8.25524 | 18845 ft | 380 kts | 302° |
| 2026-05-04 21:32 | 50.91762 | 8.22105 | 18613 ft | 379 kts | 302° |
| 2026-05-04 21:32 | 50.93273 | 8.18688 | 18381 ft | 378 kts | 302° |
| 2026-05-04 21:32 | 50.94776 | 8.15283 | 18063 ft | 376 kts | 302° |
| 2026-05-04 21:33 | 50.96276 | 8.11889 | 17718 ft | 374 kts | 302° |
| 2026-05-04 21:33 | 50.97763 | 8.08520 | 17371 ft | 372 kts | 302° |
| 2026-05-04 21:33 | 50.99242 | 8.05166 | 17029 ft | 370 kts | 302° |
| 2026-05-04 21:33 | 51.00695 | 8.01862 | 16701 ft | 368 kts | 302° |
| 2026-05-04 21:34 | 51.02158 | 7.98540 | 16362 ft | 366 kts | 301° |
| 2026-05-04 21:34 | 51.03614 | 7.95226 | 16032 ft | 365 kts | 302° |
| 2026-05-04 21:34 | 51.05058 | 7.91929 | 15715 ft | 363 kts | 301° |
| 2026-05-04 21:34 | 51.06497 | 7.88642 | 15390 ft | 361 kts | 301° |
| 2026-05-04 21:35 | 51.07925 | 7.85376 | 15070 ft | 359 kts | 301° |
| 2026-05-04 21:35 | 51.09348 | 7.82120 | 14754 ft | 358 kts | 301° |
| 2026-05-04 21:35 | 51.10767 | 7.78873 | 14447 ft | 356 kts | 301° |
| 2026-05-04 21:35 | 51.12179 | 7.75642 | 14138 ft | 355 kts | 301° |
| 2026-05-04 21:36 | 51.13584 | 7.72423 | 13825 ft | 353 kts | 301° |
| 2026-05-04 21:36 | 51.14981 | 7.69216 | 13476 ft | 352 kts | 301° |
| 2026-05-04 21:36 | 51.16347 | 7.66074 | 13045 ft | 345 kts | 301° |
| 2026-05-04 21:36 | 51.17674 | 7.63019 | 12647 ft | 328 kts | 301° |
| 2026-05-04 21:37 | 51.18937 | 7.60115 | 12262 ft | 310 kts | 301° |
| 2026-05-04 21:37 | 51.20149 | 7.57316 | 11886 ft | 304 kts | 301° |
| 2026-05-04 21:37 | 51.21339 | 7.54555 | 11506 ft | 300 kts | 301° |
| 2026-05-04 21:37 | 51.22515 | 7.51819 | 11131 ft | 298 kts | 301° |
| 2026-05-04 21:38 | 51.23687 | 7.49099 | 10759 ft | 297 kts | 301° |
| 2026-05-04 21:38 | 51.24856 | 7.46383 | 10343 ft | 296 kts | 301° |
| 2026-05-04 21:38 | 51.26015 | 7.43693 | 9763 ft | 292 kts | 301° |
| 2026-05-04 21:38 | 51.27159 | 7.41040 | 9163 ft | 289 kts | 301° |
| 2026-05-04 21:39 | 51.28277 | 7.38443 | 8635 ft | 285 kts | 301° |
| 2026-05-04 21:39 | 51.29379 | 7.35888 | 8120 ft | 274 kts | 301° |
| 2026-05-04 21:39 | 51.30438 | 7.33425 | 7605 ft | 264 kts | 301° |
| 2026-05-04 21:39 | 51.31465 | 7.31026 | 7128 ft | 260 kts | 301° |
| 2026-05-04 21:40 | 51.32480 | 7.28645 | 6643 ft | 258 kts | 301° |
| 2026-05-04 21:40 | 51.33488 | 7.26276 | 6236 ft | 258 kts | 301° |
| 2026-05-04 21:40 | 51.34501 | 7.23893 | 5821 ft | 259 kts | 301° |
| 2026-05-04 21:40 | 51.35518 | 7.21507 | 5411 ft | 260 kts | 302° |
| 2026-05-04 21:41 | 51.36490 | 7.19231 | 5026 ft | 262 kts | 302° |
| 2026-05-04 21:41 | 51.37515 | 7.16820 | 4619 ft | 263 kts | 302° |
| 2026-05-04 21:41 | 51.38535 | 7.14423 | 4214 ft | 255 kts | 302° |
| 2026-05-04 21:41 | 51.39515 | 7.12125 | 3899 ft | 248 kts | 302° |
| 2026-05-04 21:42 | 51.40462 | 7.09872 | 3607 ft | 246 kts | 298° |
| 2026-05-04 21:42 | 51.41081 | 7.07363 | 3305 ft | 241 kts | 279° |
| 2026-05-04 21:42 | 51.41141 | 7.04727 | 3062 ft | 234 kts | 259° |
| 2026-05-04 21:42 | 51.40670 | 7.02262 | 3003 ft | 228 kts | 241° |
| 2026-05-04 21:43 | 51.39832 | 7.00262 | 3045 ft | 205 kts | 231° |
| 2026-05-04 21:43 | 51.39035 | 6.98566 | 3052 ft | 180 kts | 231° |
| 2026-05-04 21:43 | 51.38273 | 6.96946 | 2979 ft | 182 kts | 231° |
| 2026-05-04 21:43 | 51.37513 | 6.95336 | 2787 ft | 181 kts | 231° |
| 2026-05-04 21:44 | 51.36754 | 6.93730 | 2559 ft | 180 kts | 232° |
| 2026-05-04 21:44 | 51.36000 | 6.92135 | 2323 ft | 179 kts | 232° |
| 2026-05-04 21:44 | 51.35249 | 6.90549 | 2088 ft | 174 kts | 231° |
| 2026-05-04 21:44 | 51.34570 | 6.89113 | 1859 ft | 156 kts | 231° |
| 2026-05-04 21:45 | 51.33936 | 6.87776 | 1660 ft | 148 kts | 231° |
| 2026-05-04 21:45 | 51.33322 | 6.86481 | 1462 ft | 145 kts | 231° |
| 2026-05-04 21:45 | 51.32711 | 6.85194 | 1282 ft | 145 kts | 231° |
| 2026-05-04 21:45 | 51.32103 | 6.83911 | 1060 ft | 145 kts | 231° |
| 2026-05-04 21:46 | 51.31491 | 6.82624 | 836 ft | 145 kts | 231° |
| 2026-05-04 21:46 | 51.30883 | 6.81342 | 643 ft | 145 kts | 231° |
| 2026-05-04 21:46 | 51.30279 | 6.80056 | 454 ft | 145 kts | 231° |
| 2026-05-04 21:46 | 51.29665 | 6.78775 | 265 ft | 144 kts | 232° |
| 2026-05-04 21:47 | 51.29064 | 6.77511 | 132 ft | 137 kts | 231° |
| 2026-05-04 21:47 | 51.28598 | 6.76541 | 124 ft | 72 kts | 232° |
| 2026-05-04 21:47 | 51.28395 | 6.76130 | 128 ft | 32 kts | 221° |
| 2026-05-04 21:47 | 51.28252 | 6.76044 | 125 ft | 7 kts | 167° |
| 2026-05-04 21:48 | 51.28220 | 6.76060 | 124 ft | 0 kts | 155° |
| 2026-05-04 21:48 | 51.28206 | 6.76071 | 126 ft | 6 kts | 153° |
| 2026-05-04 21:49 | 51.28165 | 6.76083 | 128 ft | 5 kts | 198° |
| 2026-05-04 21:49 | 51.28142 | 6.76049 | 126 ft | 7 kts | 229° |
| 2026-05-04 21:49 | 51.28083 | 6.76057 | 123 ft | 6 kts | 128° |
| 2026-05-04 21:49 | 51.28081 | 6.76059 | 126 ft | 0 kts | 133° |
| 2026-05-04 21:50 | 51.28065 | 6.76055 | 125 ft | 7 kts | 188° |
| 2026-05-04 21:50 | 51.28020 | 6.76083 | 125 ft | 6 kts | 110° |
| 2026-05-04 21:50 | 51.27998 | 6.76164 | 125 ft | 5 kts | 117° |
| 2026-05-04 21:50 | 51.27996 | 6.76169 | 125 ft | 1 kts | 118° |
| 2026-05-04 21:51 | 51.27994 | 6.76176 | 126 ft | 0 kts | 117° |